createdAt,value
2018-12-03T00:02:18.560Z,12.88
2018-12-03T00:04:48.382Z,12.95
2018-12-03T00:07:18.187Z,13.01
2018-12-03T00:09:48.036Z,13.00
2018-12-03T00:12:17.727Z,12.98
2018-12-03T00:14:47.450Z,13.03
2018-12-03T00:17:17.213Z,12.85
2018-12-03T00:19:47.118Z,12.76
2018-12-03T00:22:16.885Z,12.69
2018-12-03T00:24:46.700Z,12.81
2018-12-03T00:27:16.411Z,12.71
2018-12-03T00:29:46.136Z,12.56
2018-12-03T00:32:16.057Z,12.62
2018-12-03T00:34:45.721Z,12.48
2018-12-03T00:37:15.489Z,12.56
2018-12-03T00:39:45.170Z,12.58
2018-12-03T00:42:15.072Z,12.52
2018-12-03T00:44:44.895Z,12.72
2018-12-03T00:47:15.167Z,12.65
2018-12-03T00:49:45.156Z,12.69
2018-12-03T00:52:14.942Z,12.79
2018-12-03T00:54:44.711Z,12.78
2018-12-03T00:57:14.443Z,12.87
2018-12-03T00:59:44.199Z,12.85
2018-12-03T01:02:19.089Z,12.85
2018-12-03T01:04:48.835Z,12.93
2018-12-03T01:07:18.613Z,12.93
2018-12-03T01:09:48.369Z,12.93
2018-12-03T01:12:18.088Z,12.94
2018-12-03T01:14:47.864Z,13.09
2018-12-03T01:17:17.715Z,13.15
2018-12-03T01:19:47.707Z,13.00
2018-12-03T01:22:17.545Z,12.99
2018-12-03T01:24:47.413Z,13.01
2018-12-03T01:27:17.065Z,13.16
2018-12-03T01:29:46.877Z,13.00
2018-12-03T01:32:16.656Z,13.11
2018-12-03T01:34:46.408Z,13.09
2018-12-03T01:37:16.128Z,13.24
2018-12-03T01:39:45.943Z,13.20
2018-12-03T01:42:15.608Z,13.31
2018-12-03T01:44:45.408Z,13.13
2018-12-03T01:47:15.342Z,13.14
2018-12-03T01:49:45.260Z,13.35
2018-12-03T01:52:14.917Z,13.26
2018-12-03T01:54:44.623Z,13.21
2018-12-03T01:57:14.626Z,13.25
2018-12-03T01:59:44.332Z,12.99
2018-12-03T02:02:14.078Z,13.03
2018-12-03T02:04:43.848Z,13.02
2018-12-03T02:07:13.530Z,12.94
2018-12-03T02:09:43.196Z,12.78
2018-12-03T02:12:12.884Z,12.65
2018-12-03T02:14:42.786Z,12.61
2018-12-03T02:17:12.440Z,12.66
2018-12-03T02:19:42.144Z,12.73
2018-12-03T02:22:11.895Z,12.81
2018-12-03T02:24:41.660Z,12.86
2018-12-03T02:27:11.335Z,13.06
2018-12-03T02:29:41.015Z,13.14
2018-12-03T02:32:10.735Z,13.16
2018-12-03T02:34:40.435Z,13.01
2018-12-03T02:37:10.277Z,12.98
2018-12-03T02:39:39.953Z,13.02
2018-12-03T02:42:09.686Z,13.00
2018-12-03T02:45:05.509Z,13.05
2018-12-03T02:47:34.100Z,13.07
2018-12-03T02:50:02.691Z,13.20
2018-12-03T02:52:31.253Z,13.18
2018-12-03T02:54:59.838Z,13.08
2018-12-03T02:57:28.439Z,13.02
2018-12-03T02:59:57.143Z,13.06
2018-12-03T03:02:25.709Z,13.13
2018-12-03T03:04:54.270Z,13.04
2018-12-03T03:07:22.853Z,13.05
2018-12-03T03:09:51.477Z,13.09
2018-12-03T03:12:20.041Z,13.20
2018-12-03T03:14:48.614Z,13.15
2018-12-03T03:17:17.208Z,13.17
2018-12-03T03:19:45.981Z,13.03
2018-12-03T03:22:14.584Z,13.15
2018-12-03T03:24:43.145Z,13.01
2018-12-03T03:27:11.750Z,12.95
2018-12-03T03:29:40.322Z,13.22
2018-12-03T03:32:08.883Z,13.15
2018-12-03T03:34:37.469Z,13.11
2018-12-03T03:37:06.027Z,13.06
2018-12-03T03:39:34.628Z,13.04
2018-12-03T03:42:03.184Z,13.05
2018-12-03T03:44:31.754Z,12.88
2018-12-03T03:47:00.316Z,13.02
2018-12-03T03:49:28.890Z,12.99
2018-12-03T03:51:57.446Z,12.86
2018-12-03T03:54:26.356Z,12.64
2018-12-03T03:56:54.928Z,12.63
2018-12-03T03:59:23.832Z,12.54
2018-12-03T04:01:52.640Z,12.48
2018-12-03T04:04:21.223Z,12.44
2018-12-03T04:06:49.781Z,12.39
2018-12-03T04:09:18.381Z,12.49
2018-12-03T04:11:46.983Z,12.46
2018-12-03T04:14:15.566Z,12.41
2018-12-03T04:16:44.402Z,12.48
2018-12-03T04:19:12.994Z,12.50
2018-12-03T04:21:41.944Z,12.47
2018-12-03T04:24:10.501Z,12.51
2018-12-03T04:26:39.126Z,12.58
2018-12-03T04:29:07.680Z,12.50
2018-12-03T04:31:36.273Z,12.45
2018-12-03T04:34:05.352Z,12.60
2018-12-03T04:36:34.263Z,12.58
2018-12-03T04:39:04.606Z,12.61
2018-12-03T04:41:33.176Z,12.58
2018-12-03T04:44:01.756Z,12.60
2018-12-03T04:46:30.368Z,12.66
2018-12-03T04:48:58.949Z,12.70
2018-12-03T04:51:27.601Z,12.73
2018-12-03T04:53:56.210Z,12.84
2018-12-03T04:56:24.777Z,12.77
2018-12-03T04:58:53.396Z,12.71
2018-12-03T05:01:21.948Z,12.83
2018-12-03T05:03:50.544Z,12.73
2018-12-03T05:06:19.166Z,12.84
2018-12-03T05:08:47.729Z,12.94
2018-12-03T05:11:16.295Z,12.94
2018-12-03T05:13:44.909Z,12.92
2018-12-03T05:16:13.452Z,12.92
2018-12-03T05:18:42.060Z,12.91
2018-12-03T05:21:10.637Z,12.87
2018-12-03T05:23:39.208Z,12.75
2018-12-03T05:26:07.833Z,12.75
2018-12-03T05:28:36.402Z,12.90
2018-12-03T05:31:05.303Z,12.75
2018-12-03T05:33:33.924Z,12.67
2018-12-03T05:36:02.541Z,12.59
2018-12-03T05:38:31.246Z,12.65
2018-12-03T05:40:59.833Z,12.65
2018-12-03T05:43:28.490Z,12.55
2018-12-03T05:45:57.104Z,12.50
2018-12-03T05:48:25.701Z,12.55
2018-12-03T05:50:54.389Z,12.52
2018-12-03T05:53:22.979Z,12.60
2018-12-03T05:55:51.631Z,12.54
2018-12-03T05:58:20.205Z,12.49
2018-12-03T06:00:48.901Z,12.53
2018-12-03T06:03:17.483Z,12.56
2018-12-03T06:05:46.060Z,12.46
2018-12-03T06:08:14.638Z,12.48
2018-12-03T06:10:44.678Z,12.55
2018-12-03T06:13:13.301Z,12.38
2018-12-03T06:15:41.873Z,12.40
2018-12-03T06:18:10.486Z,12.38
2018-12-03T06:20:39.035Z,12.44
2018-12-03T06:23:07.626Z,12.35
2018-12-03T06:25:36.205Z,12.30
2018-12-03T06:28:05.494Z,12.24
2018-12-03T06:30:34.052Z,12.27
2018-12-03T06:33:02.639Z,12.33
2018-12-03T06:35:31.230Z,12.44
2018-12-03T06:37:59.842Z,12.53
2018-12-03T06:40:28.422Z,12.48
2018-12-03T06:42:56.996Z,12.43
2018-12-03T06:45:25.583Z,12.55
2018-12-03T06:47:54.175Z,12.69
2018-12-03T06:50:22.765Z,12.72
2018-12-03T06:52:51.309Z,12.66
2018-12-03T06:55:19.889Z,12.69
2018-12-03T06:57:48.481Z,12.61
2018-12-03T07:00:17.072Z,12.57
2018-12-03T07:02:46.475Z,12.64
2018-12-03T07:05:15.053Z,12.72
2018-12-03T07:07:43.644Z,12.79
2018-12-03T07:10:12.245Z,12.82
2018-12-03T07:12:41.353Z,12.80
2018-12-03T07:15:10.255Z,12.85
2018-12-03T07:17:38.849Z,12.74
2018-12-03T07:20:08.229Z,12.94
2018-12-03T07:22:36.793Z,12.86
2018-12-03T07:25:06.180Z,12.86
2018-12-03T07:27:34.753Z,12.91
2018-12-03T07:30:03.779Z,12.89
2018-12-03T07:32:32.393Z,12.84
2018-12-03T07:35:01.140Z,12.72
2018-12-03T07:37:29.725Z,12.70
2018-12-03T07:39:58.327Z,12.51
2018-12-03T07:42:27.272Z,12.62
2018-12-03T07:44:56.014Z,12.73
2018-12-03T07:47:24.614Z,12.56
2018-12-03T07:49:53.355Z,12.46
2018-12-03T07:52:21.939Z,12.47
2018-12-03T07:54:50.548Z,12.45
2018-12-03T07:57:19.235Z,12.60
2018-12-03T07:59:47.798Z,12.72
2018-12-03T08:02:16.444Z,12.79
2018-12-03T08:04:44.974Z,12.76
2018-12-03T08:07:13.551Z,12.79
2018-12-03T08:09:42.285Z,13.10
2018-12-03T08:12:10.863Z,13.21
2018-12-03T08:14:39.433Z,13.19
2018-12-03T08:17:08.082Z,13.14
2018-12-03T08:19:36.652Z,12.79
2018-12-03T08:22:06.028Z,12.64
2018-12-03T08:24:34.711Z,12.78
2018-12-03T08:27:03.309Z,12.66
2018-12-03T08:29:31.873Z,12.65
2018-12-03T08:32:00.424Z,12.69
2018-12-03T08:34:29.020Z,12.46
2018-12-03T08:36:57.597Z,12.37
2018-12-03T08:39:26.520Z,12.42
2018-12-03T08:41:55.138Z,12.39
2018-12-03T08:44:29.143Z,12.52
2018-12-03T08:46:59.152Z,12.34
2018-12-03T08:49:27.871Z,12.41
2018-12-03T08:51:56.424Z,12.39
2018-12-03T08:54:25.318Z,12.43
2018-12-03T08:56:53.911Z,12.51
2018-12-03T08:59:22.485Z,12.65
2018-12-03T09:01:51.063Z,12.83
2018-12-03T09:04:19.652Z,12.81
2018-12-03T09:06:50.037Z,12.87
2018-12-03T09:09:18.612Z,12.97
2018-12-03T09:11:47.206Z,13.14
2018-12-03T09:14:15.771Z,13.39
2018-12-03T09:16:44.430Z,13.36
2018-12-03T09:19:13.019Z,13.31
2018-12-03T09:21:41.670Z,13.30
2018-12-03T09:24:10.261Z,13.45
2018-12-03T09:26:39.056Z,13.38
2018-12-03T09:29:07.618Z,13.22
2018-12-03T09:31:36.202Z,13.09
2018-12-03T09:34:05.088Z,13.07
2018-12-03T09:36:33.652Z,13.14
2018-12-03T09:39:02.351Z,13.34
2018-12-03T09:41:30.930Z,13.09
2018-12-03T09:43:59.494Z,12.87
2018-12-03T09:46:28.533Z,12.72
2018-12-03T09:48:57.435Z,12.60
2018-12-03T09:51:28.432Z,12.69
2018-12-03T09:53:57.008Z,12.51
2018-12-03T09:56:27.804Z,12.40
2018-12-03T09:58:56.531Z,12.54
2018-12-03T10:01:25.067Z,12.46
2018-12-03T10:03:53.764Z,12.45
2018-12-03T10:06:22.378Z,12.74
2018-12-03T10:08:50.946Z,12.70
2018-12-03T10:11:19.501Z,12.71
2018-12-03T10:13:48.090Z,12.72
2018-12-03T10:16:16.672Z,12.69
2018-12-03T10:18:47.062Z,12.60
2018-12-03T10:21:15.618Z,12.55
2018-12-03T10:23:44.202Z,12.64
2018-12-03T10:26:12.822Z,12.69
2018-12-03T10:28:41.361Z,12.57
2018-12-03T10:31:11.843Z,12.51
2018-12-03T10:33:40.427Z,12.59
2018-12-03T10:36:09.004Z,12.90
2018-12-03T10:38:37.589Z,13.39
2018-12-03T10:41:06.752Z,14.00
2018-12-03T10:43:35.297Z,13.81
2018-12-03T10:46:03.969Z,14.00
2018-12-03T10:48:32.559Z,13.81
2018-12-03T10:51:01.163Z,13.91
2018-12-03T10:53:29.710Z,14.01
2018-12-03T10:55:58.492Z,14.52
2018-12-03T10:58:30.658Z,14.49
2018-12-03T11:01:17.045Z,14.44
2018-12-03T11:04:00.556Z,14.94
2018-12-03T11:06:29.231Z,14.61
2018-12-03T11:08:58.384Z,14.53
2018-12-03T11:11:26.991Z,14.78
2018-12-03T11:14:00.948Z,14.86
2018-12-03T11:16:29.626Z,14.75
2018-12-03T11:18:58.210Z,14.68
2018-12-03T11:21:26.784Z,14.78
2018-12-03T11:23:55.638Z,14.86
2018-12-03T11:26:25.186Z,14.81
2018-12-03T11:28:54.048Z,15.22
2018-12-03T11:31:22.645Z,14.98
2018-12-03T11:33:51.232Z,15.18
2018-12-03T11:36:21.959Z,15.34
2018-12-03T11:38:53.088Z,15.35
2018-12-03T11:41:21.711Z,15.05
2018-12-03T11:43:50.276Z,14.88
2018-12-03T11:46:18.832Z,14.75
2018-12-03T11:48:47.470Z,14.74
2018-12-03T11:51:16.052Z,14.87
2018-12-03T11:53:44.615Z,14.78
2018-12-03T11:56:13.203Z,14.69
2018-12-03T11:58:41.762Z,14.97
2018-12-03T12:01:10.333Z,15.14
2018-12-03T12:03:42.953Z,15.10
2018-12-03T12:06:11.201Z,15.35
2018-12-03T12:08:39.745Z,15.44
2018-12-03T12:11:08.355Z,15.49
2018-12-03T12:13:36.925Z,15.14
2018-12-03T12:16:05.583Z,15.01
2018-12-03T12:18:34.493Z,14.71
2018-12-03T12:21:03.067Z,14.77
2018-12-03T12:23:31.621Z,14.64
2018-12-03T12:26:00.169Z,14.66
2018-12-03T12:28:28.826Z,14.49
2018-12-03T12:30:57.378Z,14.72
2018-12-03T12:33:25.986Z,14.53
2018-12-03T12:35:54.553Z,14.23
2018-12-03T12:38:23.515Z,14.29
2018-12-03T12:40:52.085Z,14.58
2018-12-03T12:43:20.668Z,14.70
2018-12-03T12:45:49.269Z,14.69
2018-12-03T12:48:17.813Z,14.52
2018-12-03T12:50:46.420Z,14.19
2018-12-03T12:53:14.984Z,14.04
2018-12-03T12:55:43.617Z,13.91
2018-12-03T12:58:12.318Z,13.80
2018-12-03T13:00:40.930Z,13.76
2018-12-03T13:03:09.496Z,13.95
2018-12-03T13:05:39.219Z,13.95
2018-12-03T13:08:07.801Z,13.95
2018-12-03T13:10:36.366Z,13.92
2018-12-03T13:13:05.068Z,13.71
2018-12-03T13:15:33.638Z,14.02
2018-12-03T13:18:02.228Z,14.19
2018-12-03T13:20:30.789Z,14.07
2018-12-03T13:22:59.474Z,13.88
2018-12-03T13:25:28.072Z,13.94
2018-12-03T13:27:56.639Z,13.93
2018-12-03T13:30:25.199Z,14.06
2018-12-03T13:32:53.939Z,14.00
2018-12-03T13:35:22.544Z,14.04
2018-12-03T13:37:51.105Z,14.11
2018-12-03T13:40:19.685Z,14.02
2018-12-03T13:42:48.313Z,13.89
2018-12-03T13:45:16.906Z,14.08
2018-12-03T13:47:45.524Z,14.05
2018-12-03T13:50:14.214Z,14.11
2018-12-03T13:52:42.840Z,13.99
2018-12-03T13:55:11.593Z,14.12
2018-12-03T13:57:40.161Z,14.23
2018-12-03T14:00:12.128Z,14.27
2018-12-03T14:02:40.695Z,14.12
2018-12-03T14:05:11.965Z,14.05
2018-12-03T14:07:40.568Z,14.10
2018-12-03T14:10:14.578Z,14.07
2018-12-03T14:12:43.128Z,14.12
2018-12-03T14:15:16.611Z,14.15
2018-12-03T14:17:45.192Z,14.37
2018-12-03T14:20:13.953Z,14.28
2018-12-03T14:22:43.104Z,13.89
2018-12-03T14:25:11.679Z,13.70
2018-12-03T14:27:40.254Z,13.67
2018-12-03T14:30:09.144Z,13.56
2018-12-03T14:32:37.776Z,13.59
2018-12-03T14:35:07.855Z,13.50
2018-12-03T14:37:36.423Z,13.40
2018-12-03T14:40:06.514Z,13.32
2018-12-03T14:42:35.201Z,13.33
2018-12-03T14:45:04.276Z,13.13
2018-12-03T14:47:32.888Z,13.12
2018-12-03T14:50:01.465Z,12.99
2018-12-03T14:52:30.055Z,13.00
2018-12-03T14:54:58.659Z,12.99
2018-12-03T14:57:27.536Z,13.13
2018-12-03T14:59:56.219Z,13.16
2018-12-03T15:02:25.020Z,13.15
2018-12-03T15:04:53.635Z,13.18
2018-12-03T15:07:22.396Z,13.18
2018-12-03T15:09:51.013Z,13.14
2018-12-03T15:12:19.567Z,13.34
2018-12-03T15:14:48.153Z,13.30
2018-12-03T15:17:17.075Z,13.32
2018-12-03T15:19:45.954Z,13.21
2018-12-03T15:22:14.545Z,13.37
2018-12-03T15:24:43.137Z,13.32
2018-12-03T15:27:12.512Z,13.45
2018-12-03T15:29:41.066Z,13.43
2018-12-03T15:32:09.789Z,13.39
2018-12-03T15:34:38.310Z,13.40
2018-12-03T15:37:06.869Z,13.46
2018-12-03T15:39:35.494Z,13.52
2018-12-03T15:42:04.059Z,13.44
2018-12-03T15:44:32.683Z,13.43
2018-12-03T15:47:01.309Z,13.04
2018-12-03T15:49:29.874Z,13.09
2018-12-03T15:51:58.423Z,12.85
2018-12-03T15:54:26.985Z,12.74
2018-12-03T15:56:55.574Z,12.54
2018-12-03T15:59:24.147Z,12.46
2018-12-03T16:01:52.703Z,12.55
2018-12-03T16:04:21.274Z,12.47
2018-12-03T16:06:49.867Z,12.58
2018-12-03T16:09:18.648Z,12.51
2018-12-03T16:11:47.250Z,12.44
2018-12-03T16:14:15.809Z,12.43
2018-12-03T16:16:44.446Z,12.46
2018-12-03T16:19:13.005Z,12.51
2018-12-03T16:21:41.592Z,12.51
2018-12-03T16:24:10.211Z,12.64
2018-12-03T16:26:38.811Z,12.47
2018-12-03T16:29:07.423Z,12.44
2018-12-03T16:31:36.039Z,12.34
2018-12-03T16:34:04.607Z,12.34
2018-12-03T16:36:33.210Z,12.21
2018-12-03T16:39:01.776Z,12.33
2018-12-03T16:41:30.352Z,12.44
2018-12-03T16:43:59.143Z,12.46
2018-12-03T16:46:28.060Z,12.44
2018-12-03T16:48:56.649Z,12.25
2018-12-03T16:51:25.243Z,12.33
2018-12-03T16:53:53.950Z,12.27
2018-12-03T16:56:22.565Z,12.33
2018-12-03T16:58:51.412Z,12.39
2018-12-03T17:01:20.014Z,12.28
2018-12-03T17:03:48.580Z,12.25
2018-12-03T17:06:17.138Z,12.36
2018-12-03T17:08:45.749Z,12.25
2018-12-03T17:11:14.347Z,12.32
2018-12-03T17:13:42.936Z,12.39
2018-12-03T17:16:11.522Z,12.45
2018-12-03T17:18:40.134Z,12.46
2018-12-03T17:21:08.818Z,12.42
2018-12-03T17:23:37.371Z,12.46
2018-12-03T17:26:05.978Z,12.48
2018-12-03T17:28:34.547Z,12.52
2018-12-03T17:31:03.115Z,12.44
2018-12-03T17:33:31.806Z,12.50
2018-12-03T17:36:00.472Z,12.64
2018-12-03T17:38:29.065Z,12.62
2018-12-03T17:40:57.730Z,12.62
2018-12-03T17:43:26.304Z,12.42
2018-12-03T17:45:54.965Z,12.31
2018-12-03T17:48:23.545Z,12.30
2018-12-03T17:50:52.185Z,12.37
2018-12-03T17:53:21.001Z,12.44
2018-12-03T17:55:49.613Z,12.23
2018-12-03T17:58:18.192Z,12.09
2018-12-03T18:00:46.787Z,12.13
2018-12-03T18:03:15.409Z,12.03
2018-12-03T18:05:44.150Z,12.03
2018-12-03T18:08:12.740Z,12.03
2018-12-03T18:10:41.609Z,11.99
2018-12-03T18:13:10.196Z,11.92
2018-12-03T18:15:38.795Z,12.02
2018-12-03T18:18:07.394Z,12.04
2018-12-03T18:20:35.984Z,12.14
2018-12-03T18:23:04.563Z,12.09
2018-12-03T18:25:33.191Z,12.27
2018-12-03T18:28:02.739Z,12.33
2018-12-03T18:30:31.376Z,12.46
2018-12-03T18:32:59.966Z,12.47
2018-12-03T18:35:28.553Z,12.43
2018-12-03T18:37:57.126Z,12.65
2018-12-03T18:40:25.723Z,12.72
2018-12-03T18:42:54.311Z,12.71
2018-12-03T18:45:22.888Z,12.70
2018-12-03T18:47:51.458Z,12.65
2018-12-03T18:50:20.044Z,12.56
2018-12-03T18:52:48.806Z,12.50
2018-12-03T18:55:17.414Z,12.43
2018-12-03T18:57:46.205Z,12.65
2018-12-03T19:00:14.885Z,12.63
2018-12-03T19:02:43.434Z,12.49
2018-12-03T19:05:12.015Z,12.65
2018-12-03T19:07:42.449Z,12.69
2018-12-03T19:10:11.114Z,12.53
2018-12-03T19:12:39.714Z,12.56
2018-12-03T19:15:08.431Z,12.52
2018-12-03T19:17:37.027Z,12.56
2018-12-03T19:20:07.518Z,12.60
2018-12-03T19:22:36.132Z,12.57
2018-12-03T19:25:05.396Z,12.62
2018-12-03T19:27:34.002Z,12.63
2018-12-03T19:30:02.585Z,12.57
2018-12-03T19:32:31.284Z,12.58
2018-12-03T19:34:59.903Z,12.57
2018-12-03T19:37:28.514Z,12.58
2018-12-03T19:39:57.118Z,12.79
2018-12-03T19:42:25.757Z,12.74
2018-12-03T19:44:54.352Z,12.82
2018-12-03T19:47:23.058Z,12.84
2018-12-03T19:49:51.663Z,12.77
2018-12-03T19:52:20.267Z,12.74
2018-12-03T19:54:48.859Z,12.60
2018-12-03T19:57:17.620Z,12.55
2018-12-03T19:59:52.738Z,12.56
2018-12-03T20:02:21.320Z,12.66
2018-12-03T20:04:52.336Z,12.74
2018-12-03T20:07:21.077Z,12.69
2018-12-03T20:09:49.672Z,12.76
2018-12-03T20:12:18.302Z,12.68
2018-12-03T20:14:46.928Z,12.49
2018-12-03T20:17:15.609Z,12.68
2018-12-03T20:19:44.208Z,12.71
2018-12-03T20:22:12.807Z,12.68
2018-12-03T20:24:41.407Z,12.74
2018-12-03T20:27:09.994Z,12.65
2018-12-03T20:29:38.757Z,12.88
2018-12-03T20:32:09.421Z,12.87
2018-12-03T20:34:38.306Z,12.91
2018-12-03T20:37:12.097Z,13.05
2018-12-03T20:39:51.984Z,12.95
2018-12-03T20:42:21.464Z,12.92
2018-12-03T20:44:50.025Z,12.94
2018-12-03T20:47:18.616Z,12.85
2018-12-03T20:49:47.205Z,12.82
2018-12-03T20:52:15.867Z,12.88
2018-12-03T20:54:44.454Z,12.80
2018-12-03T20:57:13.397Z,12.72
2018-12-03T20:59:41.976Z,12.43
2018-12-03T21:02:10.595Z,12.32
2018-12-03T21:04:39.185Z,12.18
2018-12-03T21:07:07.777Z,12.12
2018-12-03T21:09:36.773Z,12.12
2018-12-03T21:12:05.732Z,12.15
2018-12-03T21:14:34.321Z,12.15
2018-12-03T21:17:02.898Z,12.21
2018-12-03T21:19:31.483Z,12.24
2018-12-03T21:22:00.081Z,12.28
2018-12-03T21:24:28.705Z,12.24
2018-12-03T21:26:57.269Z,12.28
2018-12-03T21:29:25.871Z,12.27
2018-12-03T21:31:54.653Z,12.43
2018-12-03T21:34:23.265Z,12.36
2018-12-03T21:36:51.853Z,12.40
2018-12-03T21:39:20.417Z,12.51
2018-12-03T21:41:49.017Z,12.54
2018-12-03T21:44:17.621Z,12.60
2018-12-03T21:46:46.194Z,12.51
2018-12-03T21:49:15.161Z,12.56
2018-12-03T21:51:43.753Z,12.41
2018-12-03T21:54:12.390Z,12.54
2018-12-03T21:56:41.025Z,12.50
2018-12-03T21:59:09.604Z,12.52
2018-12-03T22:01:38.512Z,12.46
2018-12-03T22:04:07.086Z,12.65
2018-12-03T22:06:35.663Z,12.62
2018-12-03T22:09:06.352Z,12.48
2018-12-03T22:11:34.961Z,12.62
2018-12-03T22:14:03.552Z,12.68
2018-12-03T22:16:32.127Z,12.57
2018-12-03T22:19:00.814Z,12.55
2018-12-03T22:21:29.415Z,12.62
2018-12-03T22:23:58.054Z,12.45
2018-12-03T22:26:26.664Z,12.62
2018-12-03T22:28:55.249Z,12.62
2018-12-03T22:31:23.813Z,12.48
2018-12-03T22:33:52.409Z,12.56
2018-12-03T22:36:20.974Z,12.52
2018-12-03T22:38:49.589Z,12.55
2018-12-03T22:41:18.178Z,12.62
2018-12-03T22:43:46.757Z,12.39
2018-12-03T22:46:15.349Z,12.52
2018-12-03T22:48:44.038Z,12.35
2018-12-03T22:51:12.607Z,12.39
2018-12-03T22:53:41.256Z,12.33
2018-12-03T22:56:09.838Z,12.17
2018-12-03T22:58:38.436Z,12.04
2018-12-03T23:01:07.924Z,11.80
2018-12-03T23:03:36.525Z,11.81
2018-12-03T23:06:05.121Z,11.72
2018-12-03T23:08:33.729Z,11.56
2018-12-03T23:11:02.296Z,11.47
2018-12-03T23:13:30.883Z,11.55
2018-12-03T23:15:59.830Z,11.47
2018-12-03T23:18:28.410Z,11.51
2018-12-03T23:20:56.978Z,11.48
2018-12-03T23:23:25.566Z,11.51
2018-12-03T23:25:54.144Z,11.38
2018-12-03T23:28:23.061Z,11.32
2018-12-03T23:30:51.684Z,11.40
2018-12-03T23:33:20.269Z,11.35
2018-12-03T23:35:48.841Z,11.48
2018-12-03T23:38:17.436Z,11.47
2018-12-03T23:40:46.028Z,11.43
2018-12-03T23:43:14.714Z,11.33
2018-12-03T23:45:43.271Z,11.16
2018-12-03T23:48:11.864Z,11.04
2018-12-03T23:50:40.454Z,11.03
2018-12-03T23:53:08.999Z,10.95
2018-12-03T23:55:37.547Z,10.91
2018-12-03T23:58:06.143Z,11.01
